Cincinnati Northern Kentucky International Airport
KCVG : now visible

Airfield :











YOU CAN JOIN US ON...

 
LOGIN :

Register | Disclaimer

   EN    FR    IT 

 









Legend :    VFR   Marginal VFR   IFR   Intensive IFR   Very Intensive IFR
Visi :
Ceiling :
>= 8 km
>= 3000ft
5 to 8 km
1000 to 3000 ft
1500m to 5 km
500 to 1000 ft
800 to 1500m
200 to 500 ft
< 800m
< 200 ft
Symbols :   Thunderstorms  Fog  Heavy snow  Heavy precipitations  Wind > 20 kt






- Airport Elevation : 896 ft
- IATA code : CVG


KCVG - Cincinnati Northern Kentucky International

CURRENT METAR :
  • 172152Z 28012KT 5SM HZ OVC015 M03/M07 A2986 RMK AO2 SLP119 T10281067 $

EXPIRED METARs :
  • 172052Z 28012KT 5SM HZ OVC015 M03/M07 A2984 RMK AO2 SLP111 T10281067 53024 $
  • 171952Z 29014KT 5SM HZ OVC014 M03/M07 A2981 RMK AO2 SLP102 T10331067 $
  • 171945Z 28014KT 5SM HZ OVC014 M03/M07 A2980 RMK AO2 T10331067 $

TAF KCVG
Valid from the 17 at 21:00 until the 19 at 00:00 UTC


172057Z 1721/1824 29012G20KT 5SM BR OVC015
FM172300 28009KT P6SM SCT015 BKN025
FM180500 24006KT P6SM BKN020
FM181600 20009KT P6SM SCT025 SCT070
KZID FIR / North America



MET'MAP, your aeronautical weather chart ! - Copyright ORBIFLY December 2007 - Disclaimer

ORBIFLY MET'MAP TEAM :

Programming & Development : Alexandra Zaïnal
Concept & original design : Baudouin d'Aumeries
Assistance for programming : Marc-Olivier Méhu
Technical & hardware support : Manuel Goepfert

Contact : metmap@orbifly.com




SOURCES & CREDITS :

   NOAA       Earth
Advisory